< < Back
Terminal Aerodrome Forecast


Current Version              Previous Versions:   1  2  3  4  5  6  7  8  9  

Terminal Aerodrome Forecast

117
FTUS42 KFFC 201552 AAC
TAFATL
TAF AMD
KATL 201552Z 2016/2118 02005KT 6SM BR FEW009 BKN015 OVC030
     FM201900 08005KT P6SM BKN030
     FM202200 05004KT P6SM BKN050
     FM210700 05004KT 5SM BR OVC025
     FM211200 06005KT 4SM BR OVC004
     FM211500 08007KT P6SM SCT040=



Latest METAR

496
SAUS70 KWBC 201600 RRA
MTRATL
METAR KATL 201552Z 10005KT 7SM SCT019 BKN032 BKN050 09/07 A3020 RMK AO2
SLP229 T00940067


USA.gov is the U.S. government's official web portal to all federal, state and local government web resources and services.